sensor_id;sensor_type;location;lat;lon;timestamp;temperature;humidity
13354;DHT22;6746;50.892;4.064;2023-10-31T00:00:38;11.20;99.90
13354;DHT22;6746;50.892;4.064;2023-10-31T00:03:16;11.20;99.90
13354;DHT22;6746;50.892;4.064;2023-10-31T00:05:54;11.20;99.90
13354;DHT22;6746;50.892;4.064;2023-10-31T00:08:32;11.10;99.90
13354;DHT22;6746;50.892;4.064;2023-10-31T00:11:20;11.10;99.90
13354;DHT22;6746;50.892;4.064;2023-10-31T00:14:06;11.10;99.90
13354;DHT22;6746;50.892;4.064;2023-10-31T00:16:45;11.10;99.90
13354;DHT22;6746;50.892;4.064;2023-10-31T00:19:33;11.20;99.90
13354;DHT22;6746;50.892;4.064;2023-10-31T00:22:11;11.20;99.90
13354;DHT22;6746;50.892;4.064;2023-10-31T00:24:50;11.20;99.90
13354;DHT22;6746;50.892;4.064;2023-10-31T00:27:28;11.20;99.90
13354;DHT22;6746;50.892;4.064;2023-10-31T00:30:06;11.30;99.90
13354;DHT22;6746;50.892;4.064;2023-10-31T00:32:54;11.30;99.90
13354;DHT22;6746;50.892;4.064;2023-10-31T00:36:09;11.30;99.90
13354;DHT22;6746;50.892;4.064;2023-10-31T00:38:48;11.30;99.90
13354;DHT22;6746;50.892;4.064;2023-10-31T00:41:26;11.30;99.90
13354;DHT22;6746;50.892;4.064;2023-10-31T00:44:05;11.30;99.90
13354;DHT22;6746;50.892;4.064;2023-10-31T00:46:44;11.30;99.90
13354;DHT22;6746;50.892;4.064;2023-10-31T00:49:22;11.30;99.90
13354;DHT22;6746;50.892;4.064;2023-10-31T00:52:00;11.30;99.90
13354;DHT22;6746;50.892;4.064;2023-10-31T00:54:38;11.20;99.90
13354;DHT22;6746;50.892;4.064;2023-10-31T00:57:19;11.20;99.90
13354;DHT22;6746;50.892;4.064;2023-10-31T00:59:58;11.20;99.90
13354;DHT22;6746;50.892;4.064;2023-10-31T01:02:36;11.20;99.90
13354;DHT22;6746;50.892;4.064;2023-10-31T01:05:14;11.20;99.90
13354;DHT22;6746;50.892;4.064;2023-10-31T01:07:52;11.20;99.90
13354;DHT22;6746;50.892;4.064;2023-10-31T01:10:31;11.20;99.90
13354;DHT22;6746;50.892;4.064;2023-10-31T01:13:09;11.20;99.90
13354;DHT22;6746;50.892;4.064;2023-10-31T01:15:47;11.10;99.90
13354;DHT22;6746;50.892;4.064;2023-10-31T01:19:05;11.10;99.90
13354;DHT22;6746;50.892;4.064;2023-10-31T01:21:43;10.90;99.90
13354;DHT22;6746;50.892;4.064;2023-10-31T01:24:31;10.90;99.90
13354;DHT22;6746;50.892;4.064;2023-10-31T01:27:09;10.80;99.90
13354;DHT22;6746;50.892;4.064;2023-10-31T01:29:47;10.80;99.90
13354;DHT22;6746;50.892;4.064;2023-10-31T01:32:25;10.80;99.90
13354;DHT22;6746;50.892;4.064;2023-10-31T01:35:04;10.70;99.90
13354;DHT22;6746;50.892;4.064;2023-10-31T01:37:45;10.60;99.90
13354;DHT22;6746;50.892;4.064;2023-10-31T01:40:23;10.60;99.90
13354;DHT22;6746;50.892;4.064;2023-10-31T01:43:07;10.60;99.90
13354;DHT22;6746;50.892;4.064;2023-10-31T01:45:45;10.50;99.90
13354;DHT22;6746;50.892;4.064;2023-10-31T01:48:23;10.60;99.90
13354;DHT22;6746;50.892;4.064;2023-10-31T01:51:02;10.50;99.90
13354;DHT22;6746;50.892;4.064;2023-10-31T01:53:42;10.50;99.90
13354;DHT22;6746;50.892;4.064;2023-10-31T01:56:21;10.50;99.90
13354;DHT22;6746;50.892;4.064;2023-10-31T01:58:59;10.60;99.90
13354;DHT22;6746;50.892;4.064;2023-10-31T02:01:38;10.70;99.90
13354;DHT22;6746;50.892;4.064;2023-10-31T02:04:25;10.80;99.90
13354;DHT22;6746;50.892;4.064;2023-10-31T02:07:03;10.70;99.90
13354;DHT22;6746;50.892;4.064;2023-10-31T02:09:42;10.70;99.90
13354;DHT22;6746;50.892;4.064;2023-10-31T02:12:35;10.70;99.90
13354;DHT22;6746;50.892;4.064;2023-10-31T02:15:10;10.70;99.90
13354;DHT22;6746;50.892;4.064;2023-10-31T02:17:51;10.60;99.90
13354;DHT22;6746;50.892;4.064;2023-10-31T02:20:29;10.50;99.90
13354;DHT22;6746;50.892;4.064;2023-10-31T02:23:15;10.50;99.90
13354;DHT22;6746;50.892;4.064;2023-10-31T02:25:54;10.50;99.90
13354;DHT22;6746;50.892;4.064;2023-10-31T02:28:32;10.40;99.90
13354;DHT22;6746;50.892;4.064;2023-10-31T02:31:10;10.50;99.90
13354;DHT22;6746;50.892;4.064;2023-10-31T02:33:56;10.50;99.90
13354;DHT22;6746;50.892;4.064;2023-10-31T02:36:34;10.40;99.90
13354;DHT22;6746;50.892;4.064;2023-10-31T02:39:21;10.40;99.90
13354;DHT22;6746;50.892;4.064;2023-10-31T02:41:59;10.40;99.90
13354;DHT22;6746;50.892;4.064;2023-10-31T02:44:40;10.40;99.90
13354;DHT22;6746;50.892;4.064;2023-10-31T02:47:18;10.40;99.90
13354;DHT22;6746;50.892;4.064;2023-10-31T02:49:56;10.30;99.90
13354;DHT22;6746;50.892;4.064;2023-10-31T02:52:34;10.40;99.90
13354;DHT22;6746;50.892;4.064;2023-10-31T02:55:22;10.40;99.90
13354;DHT22;6746;50.892;4.064;2023-10-31T02:58:04;10.40;99.90
13354;DHT22;6746;50.892;4.064;2023-10-31T03:00:42;10.30;99.90
13354;DHT22;6746;50.892;4.064;2023-10-31T03:03:30;10.20;99.90
13354;DHT22;6746;50.892;4.064;2023-10-31T03:06:08;10.20;99.90
13354;DHT22;6746;50.892;4.064;2023-10-31T03:08:46;10.20;99.90
13354;DHT22;6746;50.892;4.064;2023-10-31T03:11:25;10.10;99.90
13354;DHT22;6746;50.892;4.064;2023-10-31T03:14:03;10.00;99.90
13354;DHT22;6746;50.892;4.064;2023-10-31T03:16:49;10.00;99.90
13354;DHT22;6746;50.892;4.064;2023-10-31T03:19:27;9.90;99.90
13354;DHT22;6746;50.892;4.064;2023-10-31T03:22:15;9.90;99.90
13354;DHT22;6746;50.892;4.064;2023-10-31T03:24:54;9.90;99.90
13354;DHT22;6746;50.892;4.064;2023-10-31T03:27:32;9.80;99.90
13354;DHT22;6746;50.892;4.064;2023-10-31T03:30:20;9.70;99.90
13354;DHT22;6746;50.892;4.064;2023-10-31T03:33:08;9.70;99.90
13354;DHT22;6746;50.892;4.064;2023-10-31T03:35:56;9.70;99.90
13354;DHT22;6746;50.892;4.064;2023-10-31T03:38:35;9.70;99.90
13354;DHT22;6746;50.892;4.064;2023-10-31T03:41:13;9.70;99.90
13354;DHT22;6746;50.892;4.064;2023-10-31T03:43:51;9.60;99.90
13354;DHT22;6746;50.892;4.064;2023-10-31T03:46:29;9.60;99.90
13354;DHT22;6746;50.892;4.064;2023-10-31T03:49:17;9.60;99.90
13354;DHT22;6746;50.892;4.064;2023-10-31T03:51:55;9.50;99.90
13354;DHT22;6746;50.892;4.064;2023-10-31T03:54:34;9.50;99.90
13354;DHT22;6746;50.892;4.064;2023-10-31T03:57:21;9.50;99.90
13354;DHT22;6746;50.892;4.064;2023-10-31T04:00:00;9.50;99.90
13354;DHT22;6746;50.892;4.064;2023-10-31T04:02:39;9.50;99.90
13354;DHT22;6746;50.892;4.064;2023-10-31T04:05:16;9.50;99.90
13354;DHT22;6746;50.892;4.064;2023-10-31T04:07:54;9.50;99.90
13354;DHT22;6746;50.892;4.064;2023-10-31T04:10:40;9.40;99.90
13354;DHT22;6746;50.892;4.064;2023-10-31T04:13:19;9.40;99.90
13354;DHT22;6746;50.892;4.064;2023-10-31T04:15:57;9.30;99.90
13354;DHT22;6746;50.892;4.064;2023-10-31T04:18:35;9.40;99.90
13354;DHT22;6746;50.892;4.064;2023-10-31T04:21:16;9.30;99.90
13354;DHT22;6746;50.892;4.064;2023-10-31T04:23:55;9.30;99.90
13354;DHT22;6746;50.892;4.064;2023-10-31T04:26:39;9.30;99.90
13354;DHT22;6746;50.892;4.064;2023-10-31T04:29:16;9.30;99.90
13354;DHT22;6746;50.892;4.064;2023-10-31T04:31:54;9.40;99.90
13354;DHT22;6746;50.892;4.064;2023-10-31T04:34:32;9.50;99.90
13354;DHT22;6746;50.892;4.064;2023-10-31T04:37:13;9.70;99.90
13354;DHT22;6746;50.892;4.064;2023-10-31T04:39:51;9.80;99.90
13354;DHT22;6746;50.892;4.064;2023-10-31T04:42:39;9.90;99.90
13354;DHT22;6746;50.892;4.064;2023-10-31T04:45:27;10.00;99.90
13354;DHT22;6746;50.892;4.064;2023-10-31T04:48:15;10.00;99.90
13354;DHT22;6746;50.892;4.064;2023-10-31T04:51:04;10.10;99.90
13354;DHT22;6746;50.892;4.064;2023-10-31T04:53:52;10.10;99.90
13354;DHT22;6746;50.892;4.064;2023-10-31T04:56:40;10.20;99.90
13354;DHT22;6746;50.892;4.064;2023-10-31T04:59:28;10.20;99.90
13354;DHT22;6746;50.892;4.064;2023-10-31T05:02:07;10.20;99.90
13354;DHT22;6746;50.892;4.064;2023-10-31T05:04:45;10.20;99.90
13354;DHT22;6746;50.892;4.064;2023-10-31T05:07:23;10.20;99.90
13354;DHT22;6746;50.892;4.064;2023-10-31T05:10:02;10.30;99.90
13354;DHT22;6746;50.892;4.064;2023-10-31T05:12:48;10.30;99.90
13354;DHT22;6746;50.892;4.064;2023-10-31T05:15:26;10.20;99.90
13354;DHT22;6746;50.892;4.064;2023-10-31T05:18:05;10.20;99.90
13354;DHT22;6746;50.892;4.064;2023-10-31T05:20:43;10.20;99.90
13354;DHT22;6746;50.892;4.064;2023-10-31T05:23:24;10.10;99.90
13354;DHT22;6746;50.892;4.064;2023-10-31T05:26:04;10.10;99.90
13354;DHT22;6746;50.892;4.064;2023-10-31T05:28:40;10.10;99.90
13354;DHT22;6746;50.892;4.064;2023-10-31T05:31:19;10.00;99.90
13354;DHT22;6746;50.892;4.064;2023-10-31T05:34:02;10.00;99.90
13354;DHT22;6746;50.892;4.064;2023-10-31T05:36:43;9.90;99.90
13354;DHT22;6746;50.892;4.064;2023-10-31T05:39:29;9.80;99.90
13354;DHT22;6746;50.892;4.064;2023-10-31T05:42:07;9.80;99.90
13354;DHT22;6746;50.892;4.064;2023-10-31T05:44:48;9.80;99.90
13354;DHT22;6746;50.892;4.064;2023-10-31T05:47:27;9.80;99.90
13354;DHT22;6746;50.892;4.064;2023-10-31T05:50:05;9.90;99.90
13354;DHT22;6746;50.892;4.064;2023-10-31T05:52:43;9.90;99.90
13354;DHT22;6746;50.892;4.064;2023-10-31T05:55:22;9.90;99.90
13354;DHT22;6746;50.892;4.064;2023-10-31T05:58:00;10.00;99.90
13354;DHT22;6746;50.892;4.064;2023-10-31T06:00:48;10.00;99.90
13354;DHT22;6746;50.892;4.064;2023-10-31T06:03:29;10.00;99.90
13354;DHT22;6746;50.892;4.064;2023-10-31T06:06:08;10.10;99.90
13354;DHT22;6746;50.892;4.064;2023-10-31T06:08:46;10.00;99.90
13354;DHT22;6746;50.892;4.064;2023-10-31T06:11:24;10.10;99.90
13354;DHT22;6746;50.892;4.064;2023-10-31T06:14:03;10.10;99.90
13354;DHT22;6746;50.892;4.064;2023-10-31T06:16:41;10.20;99.90
13354;DHT22;6746;50.892;4.064;2023-10-31T06:19:19;10.20;99.90
13354;DHT22;6746;50.892;4.064;2023-10-31T06:21:57;10.20;99.90
13354;DHT22;6746;50.892;4.064;2023-10-31T06:24:38;10.10;99.90
13354;DHT22;6746;50.892;4.064;2023-10-31T06:27:16;10.10;99.90
13354;DHT22;6746;50.892;4.064;2023-10-31T06:29:56;10.10;99.90
13354;DHT22;6746;50.892;4.064;2023-10-31T06:32:35;10.10;99.90
13354;DHT22;6746;50.892;4.064;2023-10-31T06:35:20;10.10;99.90
13354;DHT22;6746;50.892;4.064;2023-10-31T06:37:59;10.20;99.90
13354;DHT22;6746;50.892;4.064;2023-10-31T06:40:39;10.20;99.90
13354;DHT22;6746;50.892;4.064;2023-10-31T06:43:18;10.30;99.90
13354;DHT22;6746;50.892;4.064;2023-10-31T06:45:56;10.40;99.90
13354;DHT22;6746;50.892;4.064;2023-10-31T06:48:24;10.40;99.90
13354;DHT22;6746;50.892;4.064;2023-10-31T06:50:55;10.40;99.90
13354;DHT22;6746;50.892;4.064;2023-10-31T06:53:24;10.40;99.90
13354;DHT22;6746;50.892;4.064;2023-10-31T06:55:56;10.40;99.90
13354;DHT22;6746;50.892;4.064;2023-10-31T06:58:30;10.50;99.90
13354;DHT22;6746;50.892;4.064;2023-10-31T07:01:02;10.50;99.90
13354;DHT22;6746;50.892;4.064;2023-10-31T07:03:38;10.40;99.90
13354;DHT22;6746;50.892;4.064;2023-10-31T07:06:07;10.50;99.90
13354;DHT22;6746;50.892;4.064;2023-10-31T07:08:45;10.50;99.90
13354;DHT22;6746;50.892;4.064;2023-10-31T07:11:17;10.50;99.90
13354;DHT22;6746;50.892;4.064;2023-10-31T07:13:45;10.50;99.90
13354;DHT22;6746;50.892;4.064;2023-10-31T07:16:24;10.50;99.90
13354;DHT22;6746;50.892;4.064;2023-10-31T07:19:00;10.50;99.90
13354;DHT22;6746;50.892;4.064;2023-10-31T07:21:30;10.60;99.90
13354;DHT22;6746;50.892;4.064;2023-10-31T07:23:59;10.60;99.90
13354;DHT22;6746;50.892;4.064;2023-10-31T07:26:29;10.70;99.90
13354;DHT22;6746;50.892;4.064;2023-10-31T07:28:58;10.80;99.90
13354;DHT22;6746;50.892;4.064;2023-10-31T07:31:27;10.80;99.90
13354;DHT22;6746;50.892;4.064;2023-10-31T07:33:56;10.80;99.90
13354;DHT22;6746;50.892;4.064;2023-10-31T07:36:25;10.80;99.90
13354;DHT22;6746;50.892;4.064;2023-10-31T07:39:04;10.80;99.90
13354;DHT22;6746;50.892;4.064;2023-10-31T07:41:35;10.80;99.90
13354;DHT22;6746;50.892;4.064;2023-10-31T07:44:04;10.80;99.90
13354;DHT22;6746;50.892;4.064;2023-10-31T07:46:35;10.80;99.90
13354;DHT22;6746;50.892;4.064;2023-10-31T07:49:05;10.80;99.90
13354;DHT22;6746;50.892;4.064;2023-10-31T07:51:41;10.90;99.90
13354;DHT22;6746;50.892;4.064;2023-10-31T07:54:10;10.90;99.90
13354;DHT22;6746;50.892;4.064;2023-10-31T07:56:49;10.90;99.90
13354;DHT22;6746;50.892;4.064;2023-10-31T07:59:20;10.90;99.90
13354;DHT22;6746;50.892;4.064;2023-10-31T08:01:49;10.90;99.90
13354;DHT22;6746;50.892;4.064;2023-10-31T08:04:23;10.90;99.90
13354;DHT22;6746;50.892;4.064;2023-10-31T08:06:53;10.80;99.90
13354;DHT22;6746;50.892;4.064;2023-10-31T08:09:25;10.80;99.90
13354;DHT22;6746;50.892;4.064;2023-10-31T08:11:54;10.90;99.90
13354;DHT22;6746;50.892;4.064;2023-10-31T08:14:32;10.90;99.90
13354;DHT22;6746;50.892;4.064;2023-10-31T08:17:10;11.00;99.90
13354;DHT22;6746;50.892;4.064;2023-10-31T08:19:48;11.00;99.90
13354;DHT22;6746;50.892;4.064;2023-10-31T08:22:22;10.90;99.90
13354;DHT22;6746;50.892;4.064;2023-10-31T08:24:51;11.00;99.90
13354;DHT22;6746;50.892;4.064;2023-10-31T08:27:26;11.00;99.90
13354;DHT22;6746;50.892;4.064;2023-10-31T08:29:54;11.10;99.90
13354;DHT22;6746;50.892;4.064;2023-10-31T08:32:33;11.20;99.90
13354;DHT22;6746;50.892;4.064;2023-10-31T08:35:09;11.20;99.90
13354;DHT22;6746;50.892;4.064;2023-10-31T08:37:38;11.20;99.90
13354;DHT22;6746;50.892;4.064;2023-10-31T08:40:15;11.20;99.90
13354;DHT22;6746;50.892;4.064;2023-10-31T08:42:44;11.30;99.90
13354;DHT22;6746;50.892;4.064;2023-10-31T08:45:22;11.30;99.90
13354;DHT22;6746;50.892;4.064;2023-10-31T08:48:00;11.40;99.90
13354;DHT22;6746;50.892;4.064;2023-10-31T08:50:29;11.30;99.90
13354;DHT22;6746;50.892;4.064;2023-10-31T08:52:58;11.40;99.90
13354;DHT22;6746;50.892;4.064;2023-10-31T08:55:36;11.60;99.90
13354;DHT22;6746;50.892;4.064;2023-10-31T08:58:14;11.70;99.90
13354;DHT22;6746;50.892;4.064;2023-10-31T09:00:52;11.80;99.90
13354;DHT22;6746;50.892;4.064;2023-10-31T09:03:30;11.80;99.90
13354;DHT22;6746;50.892;4.064;2023-10-31T09:06:06;11.70;99.90
13354;DHT22;6746;50.892;4.064;2023-10-31T09:08:35;11.70;99.90
13354;DHT22;6746;50.892;4.064;2023-10-31T09:11:13;11.80;99.90
13354;DHT22;6746;50.892;4.064;2023-10-31T09:13:44;11.70;99.90
13354;DHT22;6746;50.892;4.064;2023-10-31T09:16:13;11.70;99.90
13354;DHT22;6746;50.892;4.064;2023-10-31T09:18:51;11.70;99.90
13354;DHT22;6746;50.892;4.064;2023-10-31T09:21:39;11.50;99.90
13354;DHT22;6746;50.892;4.064;2023-10-31T09:24:17;11.50;99.90
13354;DHT22;6746;50.892;4.064;2023-10-31T09:26:55;11.50;99.90
13354;DHT22;6746;50.892;4.064;2023-10-31T09:29:27;11.40;99.90
13354;DHT22;6746;50.892;4.064;2023-10-31T09:31:55;11.30;99.90
13354;DHT22;6746;50.892;4.064;2023-10-31T09:34:29;11.30;99.90
13354;DHT22;6746;50.892;4.064;2023-10-31T09:36:58;11.30;99.90
13354;DHT22;6746;50.892;4.064;2023-10-31T09:39:29;11.40;99.90
13354;DHT22;6746;50.892;4.064;2023-10-31T09:41:57;11.40;99.90
13354;DHT22;6746;50.892;4.064;2023-10-31T09:44:35;11.50;99.90
13354;DHT22;6746;50.892;4.064;2023-10-31T09:47:06;11.50;99.90
13354;DHT22;6746;50.892;4.064;2023-10-31T09:49:35;11.50;99.90
13354;DHT22;6746;50.892;4.064;2023-10-31T09:52:13;11.50;99.90
13354;DHT22;6746;50.892;4.064;2023-10-31T09:54:51;11.60;99.90
13354;DHT22;6746;50.892;4.064;2023-10-31T09:57:29;11.70;99.90
13354;DHT22;6746;50.892;4.064;2023-10-31T10:00:07;11.60;99.90
13354;DHT22;6746;50.892;4.064;2023-10-31T10:02:45;11.60;99.90
13354;DHT22;6746;50.892;4.064;2023-10-31T10:05:14;11.60;99.90
13354;DHT22;6746;50.892;4.064;2023-10-31T10:07:55;11.60;99.90
13354;DHT22;6746;50.892;4.064;2023-10-31T10:10:23;11.60;99.90
13354;DHT22;6746;50.892;4.064;2023-10-31T10:12:52;11.50;99.90
13354;DHT22;6746;50.892;4.064;2023-10-31T10:15:30;11.60;99.90
13354;DHT22;6746;50.892;4.064;2023-10-31T10:17:58;11.70;99.90
13354;DHT22;6746;50.892;4.064;2023-10-31T10:20:27;11.80;99.90
13354;DHT22;6746;50.892;4.064;2023-10-31T10:23:05;11.70;99.90
13354;DHT22;6746;50.892;4.064;2023-10-31T10:25:33;11.70;99.90
13354;DHT22;6746;50.892;4.064;2023-10-31T10:28:02;11.60;99.90
13354;DHT22;6746;50.892;4.064;2023-10-31T10:30:40;11.70;99.90
13354;DHT22;6746;50.892;4.064;2023-10-31T10:33:11;11.70;99.90
13354;DHT22;6746;50.892;4.064;2023-10-31T10:35:40;11.70;99.90
13354;DHT22;6746;50.892;4.064;2023-10-31T10:38:14;11.70;99.90
13354;DHT22;6746;50.892;4.064;2023-10-31T10:40:42;11.80;99.90
13354;DHT22;6746;50.892;4.064;2023-10-31T10:43:23;11.80;99.90
13354;DHT22;6746;50.892;4.064;2023-10-31T10:45:56;11.70;99.90
13354;DHT22;6746;50.892;4.064;2023-10-31T10:48:25;11.50;99.90
13354;DHT22;6746;50.892;4.064;2023-10-31T10:51:05;11.60;99.90
13354;DHT22;6746;50.892;4.064;2023-10-31T10:54:19;11.60;99.90
13354;DHT22;6746;50.892;4.064;2023-10-31T10:56:03;11.60;99.90
13354;DHT22;6746;50.892;4.064;2023-10-31T10:58:44;11.70;99.90
13354;DHT22;6746;50.892;4.064;2023-10-31T11:01:10;11.80;99.90
13354;DHT22;6746;50.892;4.064;2023-10-31T11:03:38;11.80;99.90
13354;DHT22;6746;50.892;4.064;2023-10-31T11:06:09;11.80;99.90
13354;DHT22;6746;50.892;4.064;2023-10-31T11:08:38;11.90;99.90
13354;DHT22;6746;50.892;4.064;2023-10-31T11:11:09;11.90;99.90
13354;DHT22;6746;50.892;4.064;2023-10-31T11:13:37;12.00;99.90
13354;DHT22;6746;50.892;4.064;2023-10-31T11:16:11;12.00;99.90
13354;DHT22;6746;50.892;4.064;2023-10-31T11:18:46;11.90;99.90
13354;DHT22;6746;50.892;4.064;2023-10-31T11:21:24;11.80;99.90
13354;DHT22;6746;50.892;4.064;2023-10-31T11:23:58;11.80;99.90
13354;DHT22;6746;50.892;4.064;2023-10-31T11:26:27;11.70;99.90
13354;DHT22;6746;50.892;4.064;2023-10-31T11:29:07;11.70;99.90
13354;DHT22;6746;50.892;4.064;2023-10-31T11:31:46;11.70;99.90
13354;DHT22;6746;50.892;4.064;2023-10-31T11:34:19;11.60;99.90
13354;DHT22;6746;50.892;4.064;2023-10-31T11:36:47;11.80;99.90
13354;DHT22;6746;50.892;4.064;2023-10-31T11:39:26;11.80;99.90
13354;DHT22;6746;50.892;4.064;2023-10-31T11:41:55;11.80;99.90
13354;DHT22;6746;50.892;4.064;2023-10-31T11:44:23;11.80;99.90
13354;DHT22;6746;50.892;4.064;2023-10-31T11:46:54;11.80;99.90
13354;DHT22;6746;50.892;4.064;2023-10-31T11:52:19;11.70;99.90
13354;DHT22;6746;50.892;4.064;2023-10-31T11:54:47;11.70;99.90
13354;DHT22;6746;50.892;4.064;2023-10-31T11:57:27;11.70;99.90
13354;DHT22;6746;50.892;4.064;2023-10-31T11:59:55;11.70;99.90
13354;DHT22;6746;50.892;4.064;2023-10-31T12:02:26;11.70;99.90
13354;DHT22;6746;50.892;4.064;2023-10-31T12:05:28;11.80;99.90
13354;DHT22;6746;50.892;4.064;2023-10-31T12:07:45;11.80;99.90
13354;DHT22;6746;50.892;4.064;2023-10-31T12:10:29;11.70;99.90
13354;DHT22;6746;50.892;4.064;2023-10-31T12:12:55;11.80;99.90
13354;DHT22;6746;50.892;4.064;2023-10-31T12:15:26;11.90;99.90
13354;DHT22;6746;50.892;4.064;2023-10-31T12:17:57;11.90;99.90
13354;DHT22;6746;50.892;4.064;2023-10-31T12:20:28;12.00;99.90
13354;DHT22;6746;50.892;4.064;2023-10-31T12:23:03;12.00;99.90
13354;DHT22;6746;50.892;4.064;2023-10-31T12:25:45;12.20;99.90
13354;DHT22;6746;50.892;4.064;2023-10-31T12:28:04;12.20;99.90
13354;DHT22;6746;50.892;4.064;2023-10-31T12:30:43;12.30;99.90
13354;DHT22;6746;50.892;4.064;2023-10-31T12:33:07;12.40;99.90
13354;DHT22;6746;50.892;4.064;2023-10-31T12:35:45;12.50;99.90
13354;DHT22;6746;50.892;4.064;2023-10-31T12:38:32;12.50;99.90
13354;DHT22;6746;50.892;4.064;2023-10-31T12:41:20;12.50;99.90
13354;DHT22;6746;50.892;4.064;2023-10-31T12:43:49;12.50;99.90
13354;DHT22;6746;50.892;4.064;2023-10-31T12:46:29;12.50;99.90
13354;DHT22;6746;50.892;4.064;2023-10-31T12:48:57;12.50;99.90
13354;DHT22;6746;50.892;4.064;2023-10-31T12:51:26;12.40;99.90
13354;DHT22;6746;50.892;4.064;2023-10-31T12:53:54;12.50;99.90
13354;DHT22;6746;50.892;4.064;2023-10-31T12:56:36;12.40;99.90
13354;DHT22;6746;50.892;4.064;2023-10-31T12:59:03;12.40;99.90
13354;DHT22;6746;50.892;4.064;2023-10-31T13:01:31;12.40;99.90
13354;DHT22;6746;50.892;4.064;2023-10-31T13:04:03;12.40;99.90
13354;DHT22;6746;50.892;4.064;2023-10-31T13:06:31;12.30;99.90
13354;DHT22;6746;50.892;4.064;2023-10-31T13:09:02;12.40;99.90
13354;DHT22;6746;50.892;4.064;2023-10-31T13:11:31;12.30;99.90
13354;DHT22;6746;50.892;4.064;2023-10-31T13:14:09;12.30;99.90
13354;DHT22;6746;50.892;4.064;2023-10-31T13:16:40;12.40;99.90
13354;DHT22;6746;50.892;4.064;2023-10-31T13:19:08;12.40;99.90
13354;DHT22;6746;50.892;4.064;2023-10-31T13:21:40;12.50;99.90
13354;DHT22;6746;50.892;4.064;2023-10-31T13:24:09;12.60;99.90
13354;DHT22;6746;50.892;4.064;2023-10-31T13:26:47;12.70;99.90
13354;DHT22;6746;50.892;4.064;2023-10-31T13:29:25;12.90;99.90
13354;DHT22;6746;50.892;4.064;2023-10-31T13:32:03;13.00;99.90
13354;DHT22;6746;50.892;4.064;2023-10-31T13:34:41;13.00;99.90
13354;DHT22;6746;50.892;4.064;2023-10-31T13:37:19;13.00;99.90
13354;DHT22;6746;50.892;4.064;2023-10-31T13:39:57;13.10;99.90
13354;DHT22;6746;50.892;4.064;2023-10-31T13:42:31;13.30;99.90
13354;DHT22;6746;50.892;4.064;2023-10-31T13:44:59;13.30;99.90
13354;DHT22;6746;50.892;4.064;2023-10-31T13:47:37;13.30;99.90
13354;DHT22;6746;50.892;4.064;2023-10-31T13:50:11;13.40;99.90
13354;DHT22;6746;50.892;4.064;2023-10-31T13:52:39;13.50;99.90
13354;DHT22;6746;50.892;4.064;2023-10-31T13:55:08;13.50;99.90
13354;DHT22;6746;50.892;4.064;2023-10-31T13:57:36;13.40;99.90
13354;DHT22;6746;50.892;4.064;2023-10-31T14:00:08;13.30;99.90
13354;DHT22;6746;50.892;4.064;2023-10-31T14:02:36;13.20;99.90
13354;DHT22;6746;50.892;4.064;2023-10-31T14:05:05;13.10;99.90
13354;DHT22;6746;50.892;4.064;2023-10-31T14:07:33;13.10;99.90
13354;DHT22;6746;50.892;4.064;2023-10-31T14:10:11;13.10;99.90
13354;DHT22;6746;50.892;4.064;2023-10-31T14:12:42;13.10;99.90
13354;DHT22;6746;50.892;4.064;2023-10-31T14:15:11;13.10;99.90
13354;DHT22;6746;50.892;4.064;2023-10-31T14:17:52;13.10;99.90
13354;DHT22;6746;50.892;4.064;2023-10-31T14:20:23;13.00;99.90
13354;DHT22;6746;50.892;4.064;2023-10-31T14:22:52;13.00;99.90
13354;DHT22;6746;50.892;4.064;2023-10-31T14:25:30;13.10;99.90
13354;DHT22;6746;50.892;4.064;2023-10-31T14:28:01;13.10;99.90
13354;DHT22;6746;50.892;4.064;2023-10-31T14:30:29;13.10;99.90
13354;DHT22;6746;50.892;4.064;2023-10-31T14:33:00;13.20;99.90
13354;DHT22;6746;50.892;4.064;2023-10-31T14:35:29;13.20;99.90
13354;DHT22;6746;50.892;4.064;2023-10-31T14:38:00;13.20;99.90
13354;DHT22;6746;50.892;4.064;2023-10-31T14:40:28;13.10;99.90
13354;DHT22;6746;50.892;4.064;2023-10-31T14:43:07;13.10;99.90
13354;DHT22;6746;50.892;4.064;2023-10-31T14:45:46;13.10;99.90
13354;DHT22;6746;50.892;4.064;2023-10-31T14:48:24;13.10;99.90
13354;DHT22;6746;50.892;4.064;2023-10-31T14:50:55;13.10;99.90
13354;DHT22;6746;50.892;4.064;2023-10-31T14:53:24;13.20;99.90
13354;DHT22;6746;50.892;4.064;2023-10-31T14:56:01;13.10;99.90
13354;DHT22;6746;50.892;4.064;2023-10-31T14:58:29;13.10;99.90
13354;DHT22;6746;50.892;4.064;2023-10-31T15:01:05;13.20;99.90
13354;DHT22;6746;50.892;4.064;2023-10-31T15:03:34;13.20;99.90
13354;DHT22;6746;50.892;4.064;2023-10-31T15:06:12;13.20;99.90
13354;DHT22;6746;50.892;4.064;2023-10-31T15:08:40;13.10;99.90
13354;DHT22;6746;50.892;4.064;2023-10-31T15:11:08;13.10;99.90
13354;DHT22;6746;50.892;4.064;2023-10-31T15:13:46;13.00;99.90
13354;DHT22;6746;50.892;4.064;2023-10-31T15:16:18;13.00;99.90
13354;DHT22;6746;50.892;4.064;2023-10-31T15:18:46;13.00;99.90
13354;DHT22;6746;50.892;4.064;2023-10-31T15:21:24;13.00;99.90
13354;DHT22;6746;50.892;4.064;2023-10-31T15:23:55;13.00;99.90
13354;DHT22;6746;50.892;4.064;2023-10-31T15:26:24;12.90;99.90
13354;DHT22;6746;50.892;4.064;2023-10-31T15:29:02;12.90;99.90
13354;DHT22;6746;50.892;4.064;2023-10-31T15:31:43;12.90;99.90
13354;DHT22;6746;50.892;4.064;2023-10-31T15:34:21;12.90;99.90
13354;DHT22;6746;50.892;4.064;2023-10-31T15:36:49;12.90;99.90
13354;DHT22;6746;50.892;4.064;2023-10-31T15:39:20;12.90;99.90
13354;DHT22;6746;50.892;4.064;2023-10-31T15:41:49;12.90;99.90
13354;DHT22;6746;50.892;4.064;2023-10-31T15:44:17;12.90;99.90
13354;DHT22;6746;50.892;4.064;2023-10-31T15:46:45;12.90;99.90
13354;DHT22;6746;50.892;4.064;2023-10-31T15:49:23;12.90;99.90
13354;DHT22;6746;50.892;4.064;2023-10-31T15:51:55;12.80;99.90
13354;DHT22;6746;50.892;4.064;2023-10-31T15:54:23;12.80;99.90
13354;DHT22;6746;50.892;4.064;2023-10-31T15:56:51;12.80;99.90
13354;DHT22;6746;50.892;4.064;2023-10-31T15:59:20;12.80;99.90
13354;DHT22;6746;50.892;4.064;2023-10-31T16:01:48;12.90;99.90
13354;DHT22;6746;50.892;4.064;2023-10-31T16:04:17;12.80;99.90
13354;DHT22;6746;50.892;4.064;2023-10-31T16:06:55;12.80;99.90
13354;DHT22;6746;50.892;4.064;2023-10-31T16:09:33;12.80;99.90
13354;DHT22;6746;50.892;4.064;2023-10-31T16:12:11;12.70;99.90
13354;DHT22;6746;50.892;4.064;2023-10-31T16:14:47;12.60;99.90
13354;DHT22;6746;50.892;4.064;2023-10-31T16:17:16;12.60;99.90
13354;DHT22;6746;50.892;4.064;2023-10-31T16:19:54;12.50;99.90
13354;DHT22;6746;50.892;4.064;2023-10-31T16:22:32;12.50;99.90
13354;DHT22;6746;50.892;4.064;2023-10-31T16:25:00;12.50;99.90
13354;DHT22;6746;50.892;4.064;2023-10-31T16:27:29;12.40;99.90
13354;DHT22;6746;50.892;4.064;2023-10-31T16:30:07;12.40;99.90
13354;DHT22;6746;50.892;4.064;2023-10-31T16:32:45;12.40;99.90
13354;DHT22;6746;50.892;4.064;2023-10-31T16:35:23;12.40;99.90
13354;DHT22;6746;50.892;4.064;2023-10-31T16:38:11;12.50;99.90
13354;DHT22;6746;50.892;4.064;2023-10-31T16:41:01;12.50;99.90
13354;DHT22;6746;50.892;4.064;2023-10-31T16:43:49;12.60;99.90
13354;DHT22;6746;50.892;4.064;2023-10-31T16:46:40;12.60;99.90